sensor_id;sensor_type;location;lat;lon;timestamp;pressure;altitude;pressure_sealevel;temperature;humidity
10732;BME280;5417;42.686;23.244;2023-03-11T00:00:44;92529.47;;;10.85;89.36
10732;BME280;5417;42.686;23.244;2023-03-11T00:03:13;92523.44;;;10.93;89.23
10732;BME280;5417;42.686;23.244;2023-03-11T00:05:44;92501.09;;;10.98;89.25
10732;BME280;5417;42.686;23.244;2023-03-11T00:08:13;92505.19;;;11.16;87.73
10732;BME280;5417;42.686;23.244;2023-03-11T00:10:42;92514.91;;;11.22;87.24
10732;BME280;5417;42.686;23.244;2023-03-11T00:13:11;92520.50;;;11.33;86.76
10732;BME280;5417;42.686;23.244;2023-03-11T00:15:39;92505.44;;;11.44;86.09
10732;BME280;5417;42.686;23.244;2023-03-11T00:18:09;92509.63;;;11.53;85.35
10732;BME280;5417;42.686;23.244;2023-03-11T00:20:38;92511.81;;;11.64;84.41
10732;BME280;5417;42.686;23.244;2023-03-11T00:23:07;92508.66;;;11.68;83.56
10732;BME280;5417;42.686;23.244;2023-03-11T00:25:36;92512.97;;;11.76;83.28
10732;BME280;5417;42.686;23.244;2023-03-11T00:28:03;92493.06;;;11.83;82.30
10732;BME280;5417;42.686;23.244;2023-03-11T00:30:32;92491.00;;;11.93;81.69
10732;BME280;5417;42.686;23.244;2023-03-11T00:32:59;92488.75;;;11.90;81.61
10732;BME280;5417;42.686;23.244;2023-03-11T00:35:28;92490.19;;;11.93;81.01
10732;BME280;5417;42.686;23.244;2023-03-11T00:37:57;92492.63;;;11.94;81.17
10732;BME280;5417;42.686;23.244;2023-03-11T00:40:27;92496.78;;;12.04;79.82
10732;BME280;5417;42.686;23.244;2023-03-11T00:42:55;92493.72;;;12.00;79.91
10732;BME280;5417;42.686;23.244;2023-03-11T00:45:23;92502.34;;;12.00;80.75
10732;BME280;5417;42.686;23.244;2023-03-11T00:47:50;92496.16;;;12.02;80.21
10732;BME280;5417;42.686;23.244;2023-03-11T00:50:19;92483.09;;;12.02;80.34
10732;BME280;5417;42.686;23.244;2023-03-11T00:52:47;92475.28;;;12.02;80.29
10732;BME280;5417;42.686;23.244;2023-03-11T00:55:16;92468.91;;;12.04;79.68
10732;BME280;5417;42.686;23.244;2023-03-11T00:57:44;92453.88;;;12.06;79.43
10732;BME280;5417;42.686;23.244;2023-03-11T01:00:13;92444.88;;;12.09;79.53
10732;BME280;5417;42.686;23.244;2023-03-11T01:02:40;92441.72;;;12.13;79.56
10732;BME280;5417;42.686;23.244;2023-03-11T01:05:08;92443.16;;;12.16;79.73
10732;BME280;5417;42.686;23.244;2023-03-11T01:07:35;92438.94;;;12.15;80.01
10732;BME280;5417;42.686;23.244;2023-03-11T01:10:07;92441.19;;;12.18;79.49
10732;BME280;5417;42.686;23.244;2023-03-11T01:12:34;92431.94;;;12.15;79.17
10732;BME280;5417;42.686;23.244;2023-03-11T01:15:04;92407.38;;;12.10;79.13
10732;BME280;5417;42.686;23.244;2023-03-11T01:17:31;92425.63;;;12.24;79.43
10732;BME280;5417;42.686;23.244;2023-03-11T01:19:58;92420.22;;;12.26;79.25
10732;BME280;5417;42.686;23.244;2023-03-11T01:22:25;92408.78;;;12.27;78.74
10732;BME280;5417;42.686;23.244;2023-03-11T01:24:52;92397.81;;;12.31;78.39
10732;BME280;5417;42.686;23.244;2023-03-11T01:27:19;92384.94;;;12.30;77.81
10732;BME280;5417;42.686;23.244;2023-03-11T01:29:46;92368.66;;;12.28;77.13
10732;BME280;5417;42.686;23.244;2023-03-11T01:32:14;92370.66;;;12.26;77.01
10732;BME280;5417;42.686;23.244;2023-03-11T01:34:41;92372.09;;;12.28;77.28
10732;BME280;5417;42.686;23.244;2023-03-11T01:37:08;92355.63;;;12.28;77.67
10732;BME280;5417;42.686;23.244;2023-03-11T01:39:35;92341.97;;;12.26;77.61
10732;BME280;5417;42.686;23.244;2023-03-11T01:42:02;92343.88;;;12.39;77.50
10732;BME280;5417;42.686;23.244;2023-03-11T01:44:29;92349.47;;;12.36;77.95
10732;BME280;5417;42.686;23.244;2023-03-11T01:47:32;92351.28;;;12.35;77.34
10732;BME280;5417;42.686;23.244;2023-03-11T01:50:00;92383.31;;;12.29;76.12
10732;BME280;5417;42.686;23.244;2023-03-11T01:52:28;92389.97;;;12.31;75.63
10732;BME280;5417;42.686;23.244;2023-03-11T01:54:55;92389.41;;;12.36;75.59
10732;BME280;5417;42.686;23.244;2023-03-11T01:57:22;92397.56;;;12.48;74.89
10732;BME280;5417;42.686;23.244;2023-03-11T01:59:51;92390.22;;;12.37;75.14
10732;BME280;5417;42.686;23.244;2023-03-11T02:02:21;92397.97;;;12.30;74.61
10732;BME280;5417;42.686;23.244;2023-03-11T02:04:50;92410.97;;;12.23;73.53
10732;BME280;5417;42.686;23.244;2023-03-11T02:07:17;92397.72;;;12.25;73.29
10732;BME280;5417;42.686;23.244;2023-03-11T02:09:44;92393.50;;;12.24;73.39
10732;BME280;5417;42.686;23.244;2023-03-11T02:12:12;92395.31;;;12.23;72.85
10732;BME280;5417;42.686;23.244;2023-03-11T02:14:43;92396.03;;;12.17;72.94
10732;BME280;5417;42.686;23.244;2023-03-11T02:17:14;92398.22;;;12.14;72.83
10732;BME280;5417;42.686;23.244;2023-03-11T02:19:57;92409.63;;;12.13;71.67
10732;BME280;5417;42.686;23.244;2023-03-11T02:22:29;92412.06;;;12.14;71.23
10732;BME280;5417;42.686;23.244;2023-03-11T02:25:02;92426.53;;;12.17;70.47
10732;BME280;5417;42.686;23.244;2023-03-11T02:27:32;92428.97;;;12.18;70.57
10732;BME280;5417;42.686;23.244;2023-03-11T02:30:02;92438.56;;;12.18;69.89
10732;BME280;5417;42.686;23.244;2023-03-11T02:32:29;92437.94;;;12.16;69.92
10732;BME280;5417;42.686;23.244;2023-03-11T02:34:56;92445.41;;;12.19;70.73
10732;BME280;5417;42.686;23.244;2023-03-11T02:37:23;92448.81;;;12.19;71.04
10732;BME280;5417;42.686;23.244;2023-03-11T02:39:52;92439.94;;;12.14;70.99
10732;BME280;5417;42.686;23.244;2023-03-11T02:42:23;92437.59;;;12.19;70.24
10732;BME280;5417;42.686;23.244;2023-03-11T02:44:58;92448.66;;;12.21;69.94
10732;BME280;5417;42.686;23.244;2023-03-11T02:47:25;92453.50;;;12.24;69.80
10732;BME280;5417;42.686;23.244;2023-03-11T02:49:54;92449.44;;;12.21;70.25
10732;BME280;5417;42.686;23.244;2023-03-11T02:52:22;92441.69;;;12.28;69.93
10732;BME280;5417;42.686;23.244;2023-03-11T02:54:50;92436.31;;;12.29;69.95
10732;BME280;5417;42.686;23.244;2023-03-11T02:57:17;92432.00;;;12.22;69.71
10732;BME280;5417;42.686;23.244;2023-03-11T02:59:44;92419.50;;;12.17;69.89
10732;BME280;5417;42.686;23.244;2023-03-11T03:02:12;92444.06;;;12.23;69.73
10732;BME280;5417;42.686;23.244;2023-03-11T03:04:39;92433.06;;;12.27;70.43
10732;BME280;5417;42.686;23.244;2023-03-11T03:07:06;92439.28;;;12.26;70.20
10732;BME280;5417;42.686;23.244;2023-03-11T03:09:34;92444.06;;;12.23;70.23
10732;BME280;5417;42.686;23.244;2023-03-11T03:12:01;92445.31;;;12.27;69.94
10732;BME280;5417;42.686;23.244;2023-03-11T03:14:29;92442.06;;;12.25;69.74
10732;BME280;5417;42.686;23.244;2023-03-11T03:16:56;92431.75;;;12.17;69.85
10732;BME280;5417;42.686;23.244;2023-03-11T03:19:25;92437.94;;;12.16;70.10
10732;BME280;5417;42.686;23.244;2023-03-11T03:21:52;92441.00;;;12.19;70.08
10732;BME280;5417;42.686;23.244;2023-03-11T03:24:18;92451.09;;;12.08;69.77
10732;BME280;5417;42.686;23.244;2023-03-11T03:26:45;92446.69;;;12.08;70.23
10732;BME280;5417;42.686;23.244;2023-03-11T03:29:12;92448.56;;;12.14;69.77
10732;BME280;5417;42.686;23.244;2023-03-11T03:31:39;92442.91;;;12.11;69.54
10732;BME280;5417;42.686;23.244;2023-03-11T03:34:06;92448.31;;;12.09;68.79
10732;BME280;5417;42.686;23.244;2023-03-11T03:36:34;92452.16;;;12.13;69.21
10732;BME280;5417;42.686;23.244;2023-03-11T03:39:02;92448.81;;;12.19;68.37
10732;BME280;5417;42.686;23.244;2023-03-11T03:41:29;92440.56;;;12.16;67.82
10732;BME280;5417;42.686;23.244;2023-03-11T03:43:56;92446.59;;;12.16;67.70
10732;BME280;5417;42.686;23.244;2023-03-11T03:46:23;92444.50;;;12.26;67.29
10732;BME280;5417;42.686;23.244;2023-03-11T03:48:50;92448.28;;;12.24;66.28
10732;BME280;5417;42.686;23.244;2023-03-11T03:51:17;92443.13;;;12.30;66.13
10732;BME280;5417;42.686;23.244;2023-03-11T03:53:45;92438.72;;;12.31;66.47
10732;BME280;5417;42.686;23.244;2023-03-11T03:56:14;92433.06;;;12.27;66.26
10732;BME280;5417;42.686;23.244;2023-03-11T03:58:42;92446.19;;;12.34;65.86
10732;BME280;5417;42.686;23.244;2023-03-11T04:01:09;92437.38;;;12.35;65.71
10732;BME280;5417;42.686;23.244;2023-03-11T04:03:37;92433.94;;;12.35;66.10
10732;BME280;5417;42.686;23.244;2023-03-11T04:06:05;92440.59;;;12.37;65.71
10732;BME280;5417;42.686;23.244;2023-03-11T04:08:32;92430.72;;;12.32;65.95
10732;BME280;5417;42.686;23.244;2023-03-11T04:11:00;92427.94;;;12.34;65.82
10732;BME280;5417;42.686;23.244;2023-03-11T04:13:27;92428.00;;;12.41;65.20
10732;BME280;5417;42.686;23.244;2023-03-11T04:15:54;92434.13;;;12.33;65.45
10732;BME280;5417;42.686;23.244;2023-03-11T04:18:21;92450.03;;;12.38;64.93
10732;BME280;5417;42.686;23.244;2023-03-11T04:20:48;92446.63;;;12.38;65.68
10732;BME280;5417;42.686;23.244;2023-03-11T04:23:15;92453.66;;;12.37;65.07
10732;BME280;5417;42.686;23.244;2023-03-11T04:25:42;92447.44;;;12.38;65.37
10732;BME280;5417;42.686;23.244;2023-03-11T04:28:10;92442.22;;;12.38;65.28
10732;BME280;5417;42.686;23.244;2023-03-11T04:30:38;92453.28;;;12.40;65.34
10732;BME280;5417;42.686;23.244;2023-03-11T04:33:05;92442.03;;;12.40;64.51
10732;BME280;5417;42.686;23.244;2023-03-11T04:35:32;92444.91;;;12.45;63.31
10732;BME280;5417;42.686;23.244;2023-03-11T04:37:59;92448.50;;;12.44;63.54
10732;BME280;5417;42.686;23.244;2023-03-11T04:40:30;92454.06;;;12.55;63.84
10732;BME280;5417;42.686;23.244;2023-03-11T04:42:59;92443.09;;;12.45;64.56
10732;BME280;5417;42.686;23.244;2023-03-11T04:45:27;92430.53;;;12.34;64.21
10732;BME280;5417;42.686;23.244;2023-03-11T04:47:54;92450.75;;;12.47;64.50
10732;BME280;5417;42.686;23.244;2023-03-11T04:50:21;92445.53;;;12.47;64.23
10732;BME280;5417;42.686;23.244;2023-03-11T04:52:47;92447.50;;;12.45;63.95
10732;BME280;5417;42.686;23.244;2023-03-11T04:55:15;92456.16;;;12.45;63.59
10732;BME280;5417;42.686;23.244;2023-03-11T04:57:42;92454.09;;;12.41;63.33
10732;BME280;5417;42.686;23.244;2023-03-11T05:00:11;92456.88;;;12.39;63.81
10732;BME280;5417;42.686;23.244;2023-03-11T05:02:41;92464.34;;;12.42;63.28
10732;BME280;5417;42.686;23.244;2023-03-11T05:05:09;92471.16;;;12.43;63.22
10732;BME280;5417;42.686;23.244;2023-03-11T05:07:36;92475.41;;;12.44;62.97
10732;BME280;5417;42.686;23.244;2023-03-11T05:10:03;92472.72;;;12.38;63.26
10732;BME280;5417;42.686;23.244;2023-03-11T05:12:30;92487.94;;;12.34;63.16
10732;BME280;5417;42.686;23.244;2023-03-11T05:14:57;92490.16;;;12.37;63.01
10732;BME280;5417;42.686;23.244;2023-03-11T05:17:24;92490.44;;;12.42;63.13
10732;BME280;5417;42.686;23.244;2023-03-11T05:19:52;92489.63;;;12.42;63.40
10732;BME280;5417;42.686;23.244;2023-03-11T05:22:20;92494.28;;;12.46;63.35
10732;BME280;5417;42.686;23.244;2023-03-11T05:24:47;92504.47;;;12.41;64.06
10732;BME280;5417;42.686;23.244;2023-03-11T05:27:15;92490.97;;;12.38;63.70
10732;BME280;5417;42.686;23.244;2023-03-11T05:29:44;92509.69;;;12.41;63.83
10732;BME280;5417;42.686;23.244;2023-03-11T05:32:11;92515.91;;;12.40;64.07
10732;BME280;5417;42.686;23.244;2023-03-11T05:34:39;92506.72;;;12.44;63.54
10732;BME280;5417;42.686;23.244;2023-03-11T05:37:07;92513.38;;;12.47;63.58
10732;BME280;5417;42.686;23.244;2023-03-11T05:39:34;92516.63;;;12.49;63.59
10732;BME280;5417;42.686;23.244;2023-03-11T05:42:13;92521.38;;;12.60;63.79
10732;BME280;5417;42.686;23.244;2023-03-11T05:45:13;92523.72;;;12.55;64.02
10732;BME280;5417;42.686;23.244;2023-03-11T05:48:18;92524.53;;;12.55;65.83
10732;BME280;5417;42.686;23.244;2023-03-11T05:51:28;92519.75;;;12.59;65.07
10732;BME280;5417;42.686;23.244;2023-03-11T05:54:16;92530.56;;;12.56;64.78
10732;BME280;5417;42.686;23.244;2023-03-11T05:56:44;92530.00;;;12.46;65.12
10732;BME280;5417;42.686;23.244;2023-03-11T05:59:13;92543.34;;;12.51;65.36
10732;BME280;5417;42.686;23.244;2023-03-11T06:01:40;92546.03;;;12.57;65.43
10732;BME280;5417;42.686;23.244;2023-03-11T06:04:08;92547.22;;;12.55;65.84
10732;BME280;5417;42.686;23.244;2023-03-11T06:06:35;92553.06;;;12.57;65.97
10732;BME280;5417;42.686;23.244;2023-03-11T06:09:02;92551.63;;;12.54;65.37
10732;BME280;5417;42.686;23.244;2023-03-11T06:11:30;92558.00;;;12.52;66.50
10732;BME280;5417;42.686;23.244;2023-03-11T06:13:57;92555.59;;;12.50;66.33
10732;BME280;5417;42.686;23.244;2023-03-11T06:16:24;92550.00;;;12.53;67.02
10732;BME280;5417;42.686;23.244;2023-03-11T06:18:52;92550.25;;;12.58;67.56
10732;BME280;5417;42.686;23.244;2023-03-11T06:21:20;92559.44;;;12.54;67.63
10732;BME280;5417;42.686;23.244;2023-03-11T06:23:49;92562.06;;;12.54;67.05
10732;BME280;5417;42.686;23.244;2023-03-11T06:26:18;92559.63;;;12.53;66.92
10732;BME280;5417;42.686;23.244;2023-03-11T06:28:47;92560.72;;;12.58;67.43
10732;BME280;5417;42.686;23.244;2023-03-11T06:31:16;92549.19;;;12.53;67.24
10732;BME280;5417;42.686;23.244;2023-03-11T06:33:43;92555.13;;;12.61;67.09
10732;BME280;5417;42.686;23.244;2023-03-11T06:36:12;92558.00;;;12.67;66.77
10732;BME280;5417;42.686;23.244;2023-03-11T06:38:39;92563.13;;;12.60;66.65
10732;BME280;5417;42.686;23.244;2023-03-11T06:41:08;92562.03;;;12.69;66.45
10732;BME280;5417;42.686;23.244;2023-03-11T06:43:35;92564.75;;;12.61;65.82
10732;BME280;5417;42.686;23.244;2023-03-11T06:46:09;92563.56;;;12.63;65.63
10732;BME280;5417;42.686;23.244;2023-03-11T06:48:36;92546.84;;;12.58;65.79
10732;BME280;5417;42.686;23.244;2023-03-11T06:51:03;92562.94;;;12.61;65.96
10732;BME280;5417;42.686;23.244;2023-03-11T06:53:30;92564.38;;;12.64;65.81
10732;BME280;5417;42.686;23.244;2023-03-11T06:56:02;92569.41;;;12.66;65.22
10732;BME280;5417;42.686;23.244;2023-03-11T06:58:31;92569.88;;;12.69;65.11
10732;BME280;5417;42.686;23.244;2023-03-11T07:01:02;92574.44;;;12.82;70.62
10732;BME280;5417;42.686;23.244;2023-03-11T07:03:31;92576.69;;;12.85;67.30
10732;BME280;5417;42.686;23.244;2023-03-11T07:05:58;92546.88;;;12.79;65.99
10732;BME280;5417;42.686;23.244;2023-03-11T07:08:25;92568.19;;;12.98;66.12
10732;BME280;5417;42.686;23.244;2023-03-11T07:11:00;92562.63;;;13.01;65.99
10732;BME280;5417;42.686;23.244;2023-03-11T07:13:28;92551.63;;;13.05;66.41
10732;BME280;5417;42.686;23.244;2023-03-11T07:16:03;92553.66;;;13.10;66.34
10732;BME280;5417;42.686;23.244;2023-03-11T07:18:32;92551.59;;;13.20;66.01
10732;BME280;5417;42.686;23.244;2023-03-11T07:21:00;92557.31;;;13.30;63.58
10732;BME280;5417;42.686;23.244;2023-03-11T07:23:27;92547.63;;;13.24;63.97
10732;BME280;5417;42.686;23.244;2023-03-11T07:25:54;92556.50;;;13.30;63.77
10732;BME280;5417;42.686;23.244;2023-03-11T07:28:22;92534.97;;;13.27;63.44
10732;BME280;5417;42.686;23.244;2023-03-11T07:30:49;92549.97;;;13.40;63.34
10732;BME280;5417;42.686;23.244;2023-03-11T07:33:17;92540.63;;;13.52;63.33
10732;BME280;5417;42.686;23.244;2023-03-11T07:35:46;92540.06;;;13.78;63.05
10732;BME280;5417;42.686;23.244;2023-03-11T07:38:14;92532.50;;;14.18;60.41
10732;BME280;5417;42.686;23.244;2023-03-11T07:40:41;92532.31;;;14.54;58.48
10732;BME280;5417;42.686;23.244;2023-03-11T07:43:13;92498.94;;;14.63;57.88
10732;BME280;5417;42.686;23.244;2023-03-11T07:45:40;92520.41;;;14.99;56.46
10732;BME280;5417;42.686;23.244;2023-03-11T07:48:07;92494.50;;;15.31;55.54
10732;BME280;5417;42.686;23.244;2023-03-11T07:50:34;92488.06;;;15.60;54.70
10732;BME280;5417;42.686;23.244;2023-03-11T07:53:02;92484.44;;;15.94;54.42
10732;BME280;5417;42.686;23.244;2023-03-11T07:55:30;92486.81;;;16.28;54.01
10732;BME280;5417;42.686;23.244;2023-03-11T07:57:57;92489.09;;;15.92;52.68
10732;BME280;5417;42.686;23.244;2023-03-11T08:00:24;92490.69;;;15.99;53.54
10732;BME280;5417;42.686;23.244;2023-03-11T08:02:51;92479.69;;;16.49;53.57
10732;BME280;5417;42.686;23.244;2023-03-11T08:05:18;92483.97;;;16.94;51.05
10732;BME280;5417;42.686;23.244;2023-03-11T08:07:45;92467.66;;;17.24;50.90
10732;BME280;5417;42.686;23.244;2023-03-11T08:10:14;92458.81;;;17.75;48.25
10732;BME280;5417;42.686;23.244;2023-03-11T08:12:41;92456.97;;;17.75;48.29
10732;BME280;5417;42.686;23.244;2023-03-11T08:15:09;92452.78;;;18.11;46.83
10732;BME280;5417;42.686;23.244;2023-03-11T08:17:36;92436.88;;;18.42;46.10
10732;BME280;5417;42.686;23.244;2023-03-11T08:20:03;92433.19;;;18.07;45.17
10732;BME280;5417;42.686;23.244;2023-03-11T08:22:33;92440.81;;;17.65;48.60
10732;BME280;5417;42.686;23.244;2023-03-11T08:25:00;92436.25;;;17.85;48.66
10732;BME280;5417;42.686;23.244;2023-03-11T08:27:28;92443.81;;;18.18;47.77
10732;BME280;5417;42.686;23.244;2023-03-11T08:29:55;92429.84;;;18.54;47.25
10732;BME280;5417;42.686;23.244;2023-03-11T08:32:23;92429.84;;;18.91;45.85
10732;BME280;5417;42.686;23.244;2023-03-11T08:34:50;92418.22;;;19.22;45.63
10732;BME280;5417;42.686;23.244;2023-03-11T08:37:17;92418.31;;;19.45;42.84
10732;BME280;5417;42.686;23.244;2023-03-11T08:39:44;92413.75;;;19.64;46.37
10732;BME280;5417;42.686;23.244;2023-03-11T08:42:11;92409.19;;;19.95;46.87
10732;BME280;5417;42.686;23.244;2023-03-11T08:44:39;92404.50;;;19.97;46.90
10732;BME280;5417;42.686;23.244;2023-03-11T08:47:06;92406.06;;;19.74;43.34
10732;BME280;5417;42.686;23.244;2023-03-11T08:49:33;92398.00;;;19.46;45.79
10732;BME280;5417;42.686;23.244;2023-03-11T08:52:01;92400.16;;;19.37;45.22
10732;BME280;5417;42.686;23.244;2023-03-11T08:54:29;92402.97;;;19.24;47.26
10732;BME280;5417;42.686;23.244;2023-03-11T08:56:56;92399.53;;;19.23;47.01
10732;BME280;5417;42.686;23.244;2023-03-11T08:59:27;92402.22;;;18.94;45.36
10732;BME280;5417;42.686;23.244;2023-03-11T09:01:55;92402.69;;;18.72;45.31
10732;BME280;5417;42.686;23.244;2023-03-11T09:04:22;92404.25;;;18.43;47.79
10732;BME280;5417;42.686;23.244;2023-03-11T09:06:49;92409.13;;;18.58;46.97
10732;BME280;5417;42.686;23.244;2023-03-11T09:09:16;92409.44;;;18.32;45.78
10732;BME280;5417;42.686;23.244;2023-03-11T09:11:45;92410.59;;;17.24;48.14
10732;BME280;5417;42.686;23.244;2023-03-11T09:14:29;92406.69;;;16.70;48.48
10732;BME280;5417;42.686;23.244;2023-03-11T09:16:57;92402.25;;;16.58;48.84
10732;BME280;5417;42.686;23.244;2023-03-11T09:19:24;92402.22;;;16.26;49.25
10732;BME280;5417;42.686;23.244;2023-03-11T09:21:51;92394.78;;;16.10;49.98
10732;BME280;5417;42.686;23.244;2023-03-11T09:24:18;92388.63;;;16.36;52.31
10732;BME280;5417;42.686;23.244;2023-03-11T09:26:45;92394.38;;;16.71;52.77
10732;BME280;5417;42.686;23.244;2023-03-11T09:29:11;92382.81;;;17.03;51.30
10732;BME280;5417;42.686;23.244;2023-03-11T09:31:39;92385.72;;;16.95;47.65
10732;BME280;5417;42.686;23.244;2023-03-11T09:34:07;92377.53;;;17.10;50.79
10732;BME280;5417;42.686;23.244;2023-03-11T09:36:34;92385.06;;;17.31;50.24
10732;BME280;5417;42.686;23.244;2023-03-11T09:39:01;92370.63;;;16.84;46.22
10732;BME280;5417;42.686;23.244;2023-03-11T09:41:33;92376.75;;;16.27;48.51
10732;BME280;5417;42.686;23.244;2023-03-11T09:44:11;92375.44;;;16.49;49.07
10732;BME280;5417;42.686;23.244;2023-03-11T09:49:46;92386.09;;;16.67;48.59
10732;BME280;5417;42.686;23.244;2023-03-11T09:52:20;92380.47;;;16.95;46.59
10732;BME280;5417;42.686;23.244;2023-03-11T09:54:52;92379.22;;;16.60;46.21
10732;BME280;5417;42.686;23.244;2023-03-11T09:57:22;92384.63;;;16.78;45.29
10732;BME280;5417;42.686;23.244;2023-03-11T09:59:50;92364.13;;;16.49;43.69
10732;BME280;5417;42.686;23.244;2023-03-11T10:02:20;92391.56;;;16.01;45.94
10732;BME280;5417;42.686;23.244;2023-03-11T10:04:56;92381.78;;;15.70;46.26
10732;BME280;5417;42.686;23.244;2023-03-11T10:07:27;92383.78;;;15.42;46.92
10732;BME280;5417;42.686;23.244;2023-03-11T10:09:58;92395.06;;;15.56;47.21
10732;BME280;5417;42.686;23.244;2023-03-11T10:12:36;92379.56;;;15.61;46.05
10732;BME280;5417;42.686;23.244;2023-03-11T10:15:15;92397.69;;;15.56;46.79
10732;BME280;5417;42.686;23.244;2023-03-11T10:17:52;92393.47;;;15.35;47.44
10732;BME280;5417;42.686;23.244;2023-03-11T10:20:26;92401.94;;;15.30;47.89
10732;BME280;5417;42.686;23.244;2023-03-11T10:23:08;92409.81;;;15.30;48.19
10732;BME280;5417;42.686;23.244;2023-03-11T10:25:48;92396.91;;;15.35;47.74
10732;BME280;5417;42.686;23.244;2023-03-11T10:28:19;92394.06;;;15.43;47.98
10732;BME280;5417;42.686;23.244;2023-03-11T10:30:48;92396.69;;;15.37;46.30
10732;BME280;5417;42.686;23.244;2023-03-11T10:33:21;92404.16;;;15.13;46.30
10732;BME280;5417;42.686;23.244;2023-03-11T10:35:52;92398.06;;;15.00;46.81
10732;BME280;5417;42.686;23.244;2023-03-11T10:38:23;92401.31;;;15.02;47.87
10732;BME280;5417;42.686;23.244;2023-03-11T10:40:54;92377.72;;;14.95;49.36
10732;BME280;5417;42.686;23.244;2023-03-11T10:43:26;92399.31;;;15.17;48.31
10732;BME280;5417;42.686;23.244;2023-03-11T10:45:54;92401.72;;;15.05;48.78
10732;BME280;5417;42.686;23.244;2023-03-11T10:48:23;92395.88;;;15.03;49.86
10732;BME280;5417;42.686;23.244;2023-03-11T10:50:56;92416.66;;;15.11;50.35
10732;BME280;5417;42.686;23.244;2023-03-11T10:53:24;92419.69;;;15.22;51.23
10732;BME280;5417;42.686;23.244;2023-03-11T10:55:52;92415.44;;;15.40;50.13
10732;BME280;5417;42.686;23.244;2023-03-11T10:58:21;92394.84;;;15.57;48.72
10732;BME280;5417;42.686;23.244;2023-03-11T11:01:04;92405.53;;;15.56;48.64
10732;BME280;5417;42.686;23.244;2023-03-11T11:06:25;92383.78;;;15.42;50.19
10732;BME280;5417;42.686;23.244;2023-03-11T11:09:06;92399.13;;;15.71;50.56
10732;BME280;5417;42.686;23.244;2023-03-11T11:11:32;92397.84;;;15.94;49.49
10732;BME280;5417;42.686;23.244;2023-03-11T11:14:01;92388.75;;;15.96;48.60
10732;BME280;5417;42.686;23.244;2023-03-11T11:16:28;92397.03;;;16.00;49.49
10732;BME280;5417;42.686;23.244;2023-03-11T11:18:58;92390.75;;;16.14;49.00
10732;BME280;5417;42.686;23.244;2023-03-11T11:21:31;92387.72;;;16.17;46.88
10732;BME280;5417;42.686;23.244;2023-03-11T11:24:07;92380.75;;;15.78;47.14
10732;BME280;5417;42.686;23.244;2023-03-11T11:26:35;92389.06;;;15.62;46.83
10732;BME280;5417;42.686;23.244;2023-03-11T11:29:11;92376.50;;;15.57;48.63
10732;BME280;5417;42.686;23.244;2023-03-11T11:31:40;92363.38;;;15.57;49.05
10732;BME280;5417;42.686;23.244;2023-03-11T11:34:27;92356.38;;;15.64;49.54
10732;BME280;5417;42.686;23.244;2023-03-11T11:36:56;92351.28;;;15.76;49.11
10732;BME280;5417;42.686;23.244;2023-03-11T11:39:25;92339.41;;;15.73;48.93
10732;BME280;5417;42.686;23.244;2023-03-11T11:41:53;92346.44;;;15.80;48.99
10732;BME280;5417;42.686;23.244;2023-03-11T11:44:21;92333.72;;;15.83;49.87
10732;BME280;5417;42.686;23.244;2023-03-11T11:46:54;92322.59;;;15.88;51.03
10732;BME280;5417;42.686;23.244;2023-03-11T11:49:24;92322.31;;;16.09;49.00
10732;BME280;5417;42.686;23.244;2023-03-11T11:51:58;92320.41;;;16.29;48.87
10732;BME280;5417;42.686;23.244;2023-03-11T11:54:32;92324.94;;;16.47;47.72
10732;BME280;5417;42.686;23.244;2023-03-11T11:57:01;92326.88;;;16.65;46.05
10732;BME280;5417;42.686;23.244;2023-03-11T11:59:35;92309.06;;;16.74;44.16
10732;BME280;5417;42.686;23.244;2023-03-11T12:02:10;92321.31;;;16.86;42.05
10732;BME280;5417;42.686;23.244;2023-03-11T12:04:52;92310.47;;;16.76;42.56
10732;BME280;5417;42.686;23.244;2023-03-11T12:07:39;92313.84;;;17.08;44.03
10732;BME280;5417;42.686;23.244;2023-03-11T12:10:19;92309.03;;;16.80;41.38
10732;BME280;5417;42.686;23.244;2023-03-11T12:12:58;92308.16;;;16.86;43.04
10732;BME280;5417;42.686;23.244;2023-03-11T12:15:34;92302.53;;;16.83;42.05
10732;BME280;5417;42.686;23.244;2023-03-11T12:18:10;92299.22;;;16.94;42.65
10732;BME280;5417;42.686;23.244;2023-03-11T12:20:44;92312.19;;;17.14;42.98
10732;BME280;5417;42.686;23.244;2023-03-11T12:23:23;92306.69;;;17.22;41.69
10732;BME280;5417;42.686;23.244;2023-03-11T12:26:05;92308.75;;;17.38;42.34
10732;BME280;5417;42.686;23.244;2023-03-11T12:28:41;92306.56;;;17.53;43.86
10732;BME280;5417;42.686;23.244;2023-03-11T12:31:12;92300.34;;;17.66;44.34
10732;BME280;5417;42.686;23.244;2023-03-11T12:33:40;92300.78;;;17.63;43.54
10732;BME280;5417;42.686;23.244;2023-03-11T12:36:21;92310.06;;;17.65;43.16
10732;BME280;5417;42.686;23.244;2023-03-11T12:38:51;92313.44;;;17.54;43.61
10732;BME280;5417;42.686;23.244;2023-03-11T12:41:31;92311.09;;;17.46;43.68
10732;BME280;5417;42.686;23.244;2023-03-11T12:44:03;92315.69;;;17.32;44.29
10732;BME280;5417;42.686;23.244;2023-03-11T12:49:37;92316.41;;;17.15;43.97
10732;BME280;5417;42.686;23.244;2023-03-11T12:52:20;92322.31;;;17.10;45.27
10732;BME280;5417;42.686;23.244;2023-03-11T13:01:29;92344.75;;;16.88;46.69
10732;BME280;5417;42.686;23.244;2023-03-11T13:04:43;92361.34;;;16.82;46.45
10732;BME280;5417;42.686;23.244;2023-03-11T13:10:32;92360.81;;;16.60;48.00
10732;BME280;5417;42.686;23.244;2023-03-11T13:13:00;92380.88;;;16.54;48.25
10732;BME280;5417;42.686;23.244;2023-03-11T13:15:30;92386.13;;;16.54;48.50
10732;BME280;5417;42.686;23.244;2023-03-11T13:18:00;92398.25;;;16.49;47.01
10732;BME280;5417;42.686;23.244;2023-03-11T13:20:46;92411.28;;;16.30;47.85
10732;BME280;5417;42.686;23.244;2023-03-11T13:23:28;92407.31;;;16.15;48.97
10732;BME280;5417;42.686;23.244;2023-03-11T13:26:10;92421.66;;;15.99;50.38
10732;BME280;5417;42.686;23.244;2023-03-11T13:31:38;92437.22;;;15.54;55.63
10732;BME280;5417;42.686;23.244;2023-03-11T13:34:14;92441.47;;;15.42;58.05
10732;BME280;5417;42.686;23.244;2023-03-11T13:36:49;92448.47;;;15.08;58.68